Portada
METAR-TAF:

METAR-TAF

Aeropuertos :

Springbok, Sudáfrica

latitud: 29-40S, longitud: 17-53E, altitud: 1006 m

Observación

El informe se hizo hace 37 minutos, a las 06:53 UTC
Viento 4 kt del este
Temperatura 18°C
Humedad 45%
Presión 1019 hPa
Visibilidad 10 km o más
sin nubes por debajo de 1500 m y sin presencia de cumulonimbus.

METAR: FASB 160653Z 09004KT CAVOK 18/06 Q1019

Hora: 09:30 (07:30 UTC)


TAF: falta

Observaciones y pronósticos meteorológicos de más de 4000 aeropuertos (mensajes METAR y TAF).

Los puntos amarillos y rojos representan las estaciones disponibles.

Ponga el ratón en el punto deseado para ver el nombre de la estación.

Haga clic para ver las observaciones y los pronósticos meteorológicos.

Para cambiar el mapa : haga clic en los botones verdes con una cruz de color negro para hacer un zoom, en el botón verde con un guión para alejar o en las flechas verdes para mapas adyacentes.


METAR-TAF: